Mc Entire JNGB Airport
KMMT : now visible

Airfield :











YOU CAN JOIN US ON...

 
LOGIN :

Register | Disclaimer

   EN    FR    IT 

 









Legend :    VFR   Marginal VFR   IFR   Intensive IFR   Very Intensive IFR
Visi :
Ceiling :
>= 8 km
>= 3000ft
5 to 8 km
1000 to 3000 ft
1500m to 5 km
500 to 1000 ft
800 to 1500m
200 to 500 ft
< 800m
< 200 ft
Symbols :   Thunderstorms  Fog  Heavy snow  Heavy precipitations  Wind > 20 kt






- Airport Elevation : 254 ft


KMMT - Mc Entire JNGB

CURRENT METAR :
  • 220956Z 22007KT 10SM BKN055 BKN070 OVC120 24/22 A2985 RMK AO2A SLP108 P0000 T02420224 $

EXPIRED METARs :
  • 220856Z AUTO 22008KT 4SM HZ OVC019 25/22 A2985 RMK AO2 DZB15E24 SLP108 P0000 60000 T02460221 56007 $
  • 220836Z AUTO 23010KT 3SM HZ OVC019 25/22 A2985 RMK AO2 DZB15E24 OVC V BKN SLP108 $
  • 220756Z AUTO 22009KT 10SM BKN080 OVC170 25/22 A2986 RMK AO2 SLP112 T02460217 $

TAF TAF KMMT
Valid from the 22 at 07:00 until the 23 at 13:00 UTC


220700Z 2207/2313 22009KT 9999 BKN020 QNH2986INS
BECMG 2212/2213 22010KT 8000 -SHRA OVC015 QNH2990INS
TEMPO 2214/2222 23010G20KT 8000 -TSRA OVC020CB
BECMG 2223/2224 20006KT 9999 NSW OVC010 QNH2992INS TX25/2214Z TN22/2208Z
KZJX FIR / North America



MET'MAP, your aeronautical weather chart ! - Copyright ORBIFLY December 2007 - Disclaimer

ORBIFLY MET'MAP TEAM :

Programming & Development : Alexandra Zaïnal
Concept & original design : Baudouin d'Aumeries
Assistance for programming : Marc-Olivier Méhu
Technical & hardware support : Manuel Goepfert

Contact : metmap@orbifly.com




SOURCES & CREDITS :

   NOAA       Earth
Advisory